Time;durP1;ratioP1;P1;durP2;ratioP2;P2;SDS_P1;SDS_P2;PMS_P1;PMS_P2;Temp;Humidity;BMP_temperature;BMP_pressure;BME280_temperature;BME280_humidity;BME280_pressure;Samples;Min_cycle;Max_cycle;Signal;HPM_P1;HPM_P2
2022/08/02 00:01:43;;;;;;;3.53;1.08;;;20.40;67.70;;;;;;4935386;29;20042;-69
2022/08/02 00:04:09;;;;;;;5.00;1.20;;;20.40;67.70;;;;;;4937710;29;20589;-69
2022/08/02 00:06:36;;;;;;;3.53;1.05;;;20.40;67.80;;;;;;4944102;28;20306;-69
2022/08/02 00:09:03;;;;;;;3.15;0.90;;;20.40;67.40;;;;;;4941650;29;20027;-69
2022/08/02 00:11:29;;;;;;;3.53;1.10;;;20.40;67.70;;;;;;4941001;29;20058;-69
2022/08/02 00:13:55;;;;;;;2.20;1.17;;;20.40;67.70;;;;;;4943611;28;20133;-69
2022/08/02 00:16:21;;;;;;;3.25;1.58;;;20.40;67.20;;;;;;4939439;28;20043;-69
2022/08/02 00:18:46;;;;;;;2.30;0.80;;;20.40;67.50;;;;;;4937495;28;20480;-69
2022/08/02 00:21:13;;;;;;;3.10;0.98;;;20.30;67.10;;;;;;4935197;29;20038;-69
2022/08/02 00:23:38;;;;;;;5.25;1.40;;;20.40;67.00;;;;;;4940651;28;20078;-69
2022/08/02 00:26:04;;;;;;;3.17;1.17;;;20.40;66.10;;;;;;4941562;29;20130;-69
2022/08/02 00:28:30;;;;;;;1.88;0.95;;;20.40;66.30;;;;;;4942027;29;20074;-69
2022/08/02 00:30:57;;;;;;;2.80;1.13;;;20.40;66.50;;;;;;4943090;28;20142;-69
2022/08/02 00:33:23;;;;;;;2.13;0.90;;;20.40;67.40;;;;;;4938703;29;20127;-69
2022/08/02 00:35:48;;;;;;;4.80;1.30;;;20.40;67.40;;;;;;4939051;28;20039;-69
2022/08/02 00:38:14;;;;;;;2.67;1.10;;;20.30;67.10;;;;;;4936623;29;20058;-69
2022/08/02 00:40:46;;;;;;;4.53;1.33;;;20.30;66.60;;;;;;4937011;28;20035;-69
2022/08/02 00:43:12;;;;;;;5.13;1.60;;;20.30;66.50;;;;;;4942346;29;20039;-69
2022/08/02 00:45:39;;;;;;;5.43;1.40;;;20.30;66.40;;;;;;4942157;29;20027;-69
2022/08/02 00:48:07;;;;;;;2.58;0.93;;;20.30;65.70;;;;;;4940668;28;20027;-69
2022/08/02 00:50:34;;;;;;;5.63;1.17;;;20.40;65.70;;;;;;4940906;28;20649;-69
2022/08/02 00:52:59;;;;;;;3.25;1.30;;;20.40;65.60;;;;;;4940015;29;20486;-69
2022/08/02 00:55:26;;;;;;;5.25;1.30;;;20.40;65.10;;;;;;4938088;29;20043;-69
2022/08/02 00:57:52;;;;;;;4.35;1.15;;;20.40;65.30;;;;;;4936186;28;20573;-69
2022/08/02 01:00:18;;;;;;;3.80;1.20;;;20.40;65.50;;;;;;4935030;29;20042;-69
2022/08/02 01:02:44;;;;;;;3.50;1.10;;;20.30;65.80;;;;;;4943118;28;20043;-69
2022/08/02 01:05:10;;;;;;;4.43;1.50;;;20.40;65.70;;;;;;4941835;29;20063;-69
2022/08/02 01:07:35;;;;;;;6.10;1.30;;;20.40;65.70;;;;;;4941094;29;20015;-69
2022/08/02 01:10:02;;;;;;;6.90;1.30;;;20.30;65.30;;;;;;4938724;28;20039;-69
2022/08/02 01:12:28;;;;;;;3.03;1.25;;;20.30;65.40;;;;;;4938516;29;20038;-69
2022/08/02 01:14:57;;;;;;;3.28;1.00;;;20.30;65.40;;;;;;4936432;29;20038;-69
2022/08/02 01:17:47;;;;;;;3.88;1.15;;;20.30;65.60;;;;;;4936077;29;20047;-69
2022/08/02 01:20:22;;;;;;;3.83;0.82;;;20.30;65.70;;;;;;4937381;29;20067;-69
2022/08/02 01:22:50;;;;;;;5.65;1.45;;;20.30;65.80;;;;;;4941925;28;20099;-69
2022/08/02 01:26:03;;;;;;;4.00;1.23;;;20.30;66.10;;;;;;4940191;28;20041;-69
2022/08/02 01:28:39;;;;;;;2.67;1.10;;;20.30;66.00;;;;;;4928297;28;20142;-69
2022/08/02 01:31:17;;;;;;;1.92;1.00;;;20.20;66.20;;;;;;4937920;28;20097;-69
2022/08/02 01:33:54;;;;;;;3.42;1.15;;;20.20;66.70;;;;;;4936561;29;20118;-69
2022/08/02 01:36:23;;;;;;;2.90;1.00;;;20.20;66.50;;;;;;4934862;28;20122;-69
2022/08/02 01:38:53;;;;;;;2.08;1.05;;;20.20;66.70;;;;;;4936149;28;20039;-69
2022/08/02 01:41:24;;;;;;;4.43;1.08;;;20.20;66.80;;;;;;4941821;28;20077;-69
2022/08/02 01:43:55;;;;;;;4.50;1.23;;;20.20;66.60;;;;;;4943697;29;20380;-69
2022/08/02 01:46:23;;;;;;;3.00;1.13;;;20.20;66.50;;;;;;4942591;29;20397;-68
2022/08/02 01:48:52;;;;;;;8.27;1.52;;;20.20;66.10;;;;;;4940996;28;20067;-69
2022/08/02 01:52:20;;;;;;;3.80;1.35;;;20.20;66.00;;;;;;4937821;28;20040;-69
2022/08/02 01:54:10;;;;;;;6.00;1.52;;;20.20;66.00;;;;;;4933560;28;20261;-69
2022/08/02 01:56:37;;;;;;;3.78;1.20;;;20.10;66.60;;;;;;4936145;29;20042;-69
2022/08/02 01:59:07;;;;;;;2.08;1.20;;;20.10;66.50;;;;;;4942617;28;20042;-69
2022/08/02 02:01:37;;;;;;;4.90;1.30;;;20.10;66.70;;;;;;4940723;28;20031;-69
2022/08/02 02:04:03;;;;;;;5.40;1.42;;;20.10;66.60;;;;;;4938897;28;20054;-69
2022/08/02 02:06:31;;;;;;;5.95;1.65;;;20.00;66.90;;;;;;4939091;29;20755;-69
2022/08/02 02:08:58;;;;;;;5.13;1.25;;;20.00;67.10;;;;;;4936537;28;20031;-69
2022/08/02 02:11:23;;;;;;;4.53;1.48;;;19.90;67.40;;;;;;4936375;29;20794;-69
2022/08/02 02:13:50;;;;;;;2.10;1.08;;;19.80;67.90;;;;;;4934513;29;20032;-69
2022/08/02 02:16:18;;;;;;;4.50;1.33;;;19.70;68.20;;;;;;4937392;29;20067;-69
2022/08/02 02:18:45;;;;;;;2.72;1.05;;;19.60;68.40;;;;;;4942460;28;20019;-69
2022/08/02 02:21:12;;;;;;;2.92;1.10;;;19.60;68.70;;;;;;4939633;28;20661;-69
2022/08/02 02:23:38;;;;;;;2.90;1.40;;;19.40;69.00;;;;;;4939719;28;20122;-69
2022/08/02 02:26:05;;;;;;;4.13;1.58;;;19.30;69.50;;;;;;4938870;28;20811;-69
2022/08/02 02:28:36;;;;;;;2.83;1.10;;;19.20;69.70;;;;;;4937873;29;20066;-69
2022/08/02 02:31:08;;;;;;;3.97;1.50;;;19.10;70.10;;;;;;4934753;28;20111;-69
2022/08/02 02:33:39;;;;;;;8.00;1.73;;;19.00;70.30;;;;;;4935060;29;20074;-69
2022/08/02 02:36:08;;;;;;;3.45;1.48;;;18.80;70.80;;;;;;4938709;29;20031;-69
2022/08/02 02:38:36;;;;;;;3.72;1.30;;;18.70;71.10;;;;;;4941782;28;20046;-69
2022/08/02 02:41:05;;;;;;;4.57;1.33;;;18.60;71.50;;;;;;4938708;28;20500;-69
2022/08/02 02:43:33;;;;;;;2.95;1.00;;;18.50;71.80;;;;;;4938725;29;20038;-69
2022/08/02 02:46:02;;;;;;;6.15;1.60;;;18.50;72.10;;;;;;4936469;29;20515;-69
2022/08/02 02:48:29;;;;;;;4.30;1.58;;;18.40;72.30;;;;;;4937848;29;20689;-70
2022/08/02 02:50:56;;;;;;;4.65;1.38;;;18.30;72.60;;;;;;4937609;28;20027;-69
2022/08/02 02:53:23;;;;;;;4.75;1.33;;;18.30;73.10;;;;;;4936770;29;20038;-69
2022/08/02 02:55:49;;;;;;;2.92;1.40;;;18.20;73.40;;;;;;4945417;28;20036;-69
2022/08/02 02:58:16;;;;;;;4.00;1.50;;;18.20;73.70;;;;;;4943661;28;20035;-69
2022/08/02 03:03:48;;;;;;;3.75;1.63;;;18.30;73.40;;;;;;4889331;29;20469;-69
2022/08/02 03:06:14;;;;;;;5.13;1.60;;;18.30;73.40;;;;;;4890015;29;20785;-69
2022/08/02 03:08:40;;;;;;;6.78;1.65;;;18.30;73.40;;;;;;4913527;29;20118;-69
2022/08/02 03:11:08;;;;;;;3.28;1.42;;;18.30;72.80;;;;;;4938827;29;20707;-69
2022/08/02 03:13:35;;;;;;;7.25;1.67;;;18.40;72.90;;;;;;4941476;29;20531;-69
2022/08/02 03:16:02;;;;;;;6.25;1.48;;;18.40;72.40;;;;;;4943837;28;20035;-69
2022/08/02 03:18:39;;;;;;;9.05;1.88;;;18.40;72.50;;;;;;4943209;29;20102;-69
2022/08/02 03:21:08;;;;;;;5.50;1.92;;;18.50;72.20;;;;;;4942068;28;20057;-69
2022/08/02 03:23:34;;;;;;;4.95;1.52;;;18.50;71.90;;;;;;4940397;28;20110;-69
2022/08/02 03:26:01;;;;;;;3.47;1.15;;;18.50;72.00;;;;;;4937492;28;20082;-69
2022/08/02 03:28:27;;;;;;;7.38;1.83;;;18.50;72.40;;;;;;4936718;29;20138;-69
2022/08/02 03:30:53;;;;;;;4.07;1.30;;;18.40;72.50;;;;;;4935228;28;20098;-69
2022/08/02 03:33:20;;;;;;;5.13;1.80;;;18.40;72.50;;;;;;4942187;29;20063;-69
2022/08/02 03:35:48;;;;;;;8.30;1.88;;;18.40;72.90;;;;;;4943406;28;20035;-69
2022/08/02 03:38:16;;;;;;;3.15;1.52;;;18.40;73.00;;;;;;4941412;28;20039;-69
2022/08/02 03:40:43;;;;;;;4.53;1.58;;;18.30;73.00;;;;;;4941328;28;20041;-69
2022/08/02 03:43:11;;;;;;;3.85;1.40;;;18.30;73.00;;;;;;4936299;29;20098;-69
2022/08/02 03:45:40;;;;;;;4.28;1.70;;;18.30;72.90;;;;;;4942625;28;20151;-69
2022/08/02 03:48:07;;;;;;;9.32;1.70;;;18.30;73.00;;;;;;4935016;29;20071;-69
2022/08/02 03:50:35;;;;;;;4.22;1.60;;;18.20;73.10;;;;;;4938291;29;20023;-68
2022/08/02 03:53:01;;;;;;;4.65;1.70;;;18.30;73.30;;;;;;4940588;28;20118;-69
2022/08/02 03:55:27;;;;;;;5.57;1.70;;;18.20;73.30;;;;;;4942455;29;20121;-69
2022/08/02 03:57:53;;;;;;;5.95;1.77;;;18.10;73.40;;;;;;4942870;28;20035;-70
2022/08/02 04:00:21;;;;;;;3.97;1.45;;;18.10;73.50;;;;;;4941757;28;20040;-69
2022/08/02 04:02:48;;;;;;;3.33;1.63;;;18.00;73.70;;;;;;4941473;28;20752;-69
2022/08/02 04:05:14;;;;;;;5.10;1.88;;;17.90;73.90;;;;;;4938875;29;20913;-69
2022/08/02 04:07:42;;;;;;;4.50;1.40;;;17.90;74.10;;;;;;4937799;29;20023;-69
2022/08/02 04:10:09;;;;;;;4.93;1.70;;;17.80;74.30;;;;;;4940904;29;20137;-69
2022/08/02 04:12:35;;;;;;;5.30;1.58;;;17.80;74.50;;;;;;4942506;28;20042;-69
2022/08/02 04:15:05;;;;;;;8.77;1.42;;;17.70;74.80;;;;;;4940274;28;20042;-69
2022/08/02 04:17:34;;;;;;;4.57;1.73;;;17.70;75.10;;;;;;4940973;29;20039;-69
2022/08/02 04:20:13;;;;;;;4.28;1.60;;;17.70;75.40;;;;;;4938058;29;20828;-69
2022/08/02 04:22:53;;;;;;;3.53;1.50;;;17.60;75.50;;;;;;4938014;29;20620;-69
2022/08/02 04:25:21;;;;;;;5.22;1.90;;;17.60;75.80;;;;;;4939207;29;20142;-69
2022/08/02 04:27:47;;;;;;;5.97;2.08;;;17.50;75.90;;;;;;4935546;29;20098;-69
2022/08/02 04:30:16;;;;;;;5.65;1.75;;;17.50;76.80;;;;;;4945460;28;20045;-68
2022/08/02 04:32:43;;;;;;;3.78;1.38;;;17.50;76.40;;;;;;4944669;28;20031;-68
2022/08/02 04:35:09;;;;;;;2.75;1.27;;;17.50;76.70;;;;;;4940821;29;20050;-69
2022/08/02 04:37:37;;;;;;;3.35;1.65;;;17.50;76.60;;;;;;4941296;28;20511;-69
2022/08/02 04:40:11;;;;;;;5.43;2.00;;;17.60;76.80;;;;;;4938599;29;20770;-69
2022/08/02 04:42:37;;;;;;;6.00;1.88;;;17.60;76.90;;;;;;4937610;28;20114;-69
2022/08/02 04:45:07;;;;;;;3.70;1.65;;;17.70;76.70;;;;;;4934937;29;20114;-69
2022/08/02 04:47:33;;;;;;;6.45;1.85;;;17.70;76.60;;;;;;4937408;29;20102;-69
2022/08/02 04:49:59;;;;;;;6.07;1.70;;;17.80;76.80;;;;;;4944298;28;20039;-69
2022/08/02 04:52:25;;;;;;;3.90;1.52;;;17.80;76.50;;;;;;4941646;29;20035;-69
2022/08/02 04:54:52;;;;;;;4.97;1.52;;;17.80;76.20;;;;;;4941772;28;20161;-69
2022/08/02 05:00:06;;;;;;;4.28;1.80;;;17.90;76.60;;;;;;4936794;29;20644;-69
2022/08/02 05:02:31;;;;;;;5.25;1.80;;;17.90;76.80;;;;;;4937511;29;20035;-69
2022/08/02 05:04:57;;;;;;;3.75;1.90;;;17.90;76.70;;;;;;4934319;29;20043;-69
2022/08/02 05:07:23;;;;;;;5.63;1.67;;;17.90;76.70;;;;;;4943075;29;20035;-69
2022/08/02 05:09:48;;;;;;;5.60;1.77;;;17.90;76.80;;;;;;4942811;28;20054;-69
2022/08/02 05:12:14;;;;;;;4.32;1.70;;;17.90;76.90;;;;;;4939643;29;20039;-69
2022/08/02 05:14:40;;;;;;;5.70;1.73;;;17.90;76.90;;;;;;4940417;28;20419;-69
2022/08/02 05:17:06;;;;;;;3.85;1.67;;;17.90;77.00;;;;;;4937493;29;20564;-69
2022/08/02 05:19:31;;;;;;;6.45;2.30;;;18.00;77.20;;;;;;4938462;29;20106;-69
2022/08/02 05:21:57;;;;;;;2.53;1.50;;;18.00;77.20;;;;;;4935348;28;20035;-69
2022/08/02 05:24:23;;;;;;;5.20;1.75;;;18.00;77.10;;;;;;4935777;29;20429;-69
2022/08/02 05:26:49;;;;;;;4.93;1.77;;;18.10;77.40;;;;;;4943429;28;20035;-69
2022/08/02 05:29:15;;;;;;;3.95;1.88;;;18.10;77.40;;;;;;4942497;28;20043;-69
2022/08/02 05:31:41;;;;;;;8.15;1.60;;;18.20;77.10;;;;;;4943054;28;20031;-69
2022/08/02 05:34:07;;;;;;;4.28;1.80;;;18.30;77.20;;;;;;4938346;28;20046;-69
2022/08/02 05:36:33;;;;;;;3.30;1.52;;;18.30;77.40;;;;;;4938506;28;20052;-69
2022/08/02 05:38:58;;;;;;;5.22;2.08;;;18.30;77.30;;;;;;4939776;28;20051;-69
2022/08/02 05:41:24;;;;;;;5.57;1.80;;;18.40;77.60;;;;;;4935174;28;20059;-69
2022/08/02 05:43:50;;;;;;;4.05;1.80;;;18.50;77.50;;;;;;4935815;29;20035;-69
2022/08/02 05:46:16;;;;;;;5.75;1.95;;;18.50;77.30;;;;;;4941886;29;20454;-69
2022/08/02 05:48:43;;;;;;;2.40;1.33;;;18.60;77.20;;;;;;4941331;28;20042;-69
2022/08/02 05:51:24;;;;;;;4.53;1.55;;;18.70;77.20;;;;;;4938753;28;20035;-69
2022/08/02 05:54:08;;;;;;;4.85;1.80;;;18.80;77.10;;;;;;4937680;29;20086;-69
2022/08/02 05:56:44;;;;;;;4.75;1.73;;;18.90;76.60;;;;;;4937063;29;20107;-69
2022/08/02 05:59:22;;;;;;;3.90;1.58;;;19.00;76.10;;;;;;4934217;29;20031;-69
2022/08/02 06:01:54;;;;;;;4.85;1.98;;;19.10;76.30;;;;;;4937877;28;20026;-69
2022/08/02 06:04:25;;;;;;;6.90;2.22;;;19.10;76.20;;;;;;4941438;29;20035;-69
2022/08/02 06:06:55;;;;;;;6.05;1.92;;;19.30;76.40;;;;;;4942003;28;20142;-69
2022/08/02 06:09:23;;;;;;;5.60;1.80;;;19.40;75.40;;;;;;4938926;29;20040;-69
2022/08/02 06:11:51;;;;;;;4.75;1.90;;;19.50;75.70;;;;;;4935335;28;20262;-69
2022/08/02 06:14:18;;;;;;;4.38;1.85;;;19.60;75.70;;;;;;4936376;29;20154;-69
2022/08/02 06:16:44;;;;;;;5.13;1.40;;;19.70;75.00;;;;;;4939153;29;20138;-69
2022/08/02 06:19:11;;;;;;;4.18;1.30;;;19.80;74.70;;;;;;4935710;29;20035;-69
2022/08/02 06:21:41;;;;;;;4.45;1.92;;;19.90;75.00;;;;;;4941254;28;20100;-69
2022/08/02 06:24:09;;;;;;;7.78;2.30;;;20.00;74.60;;;;;;4945897;29;20047;-69
2022/08/02 06:26:35;;;;;;;6.95;1.75;;;20.10;74.00;;;;;;4945631;28;20050;-69
2022/08/02 06:29:02;;;;;;;6.07;2.33;;;20.20;73.60;;;;;;4942783;28;20053;-69
2022/08/02 06:31:28;;;;;;;5.47;1.58;;;20.30;73.00;;;;;;4943263;28;20027;-69
2022/08/02 06:33:54;;;;;;;5.90;1.70;;;20.30;72.40;;;;;;4940229;29;20043;-69
2022/08/02 06:36:49;;;;;;;3.45;1.40;;;20.40;72.20;;;;;;4938891;29;20059;-69
2022/08/02 06:39:30;;;;;;;7.97;1.67;;;20.50;71.40;;;;;;4937194;29;20094;-69
2022/08/02 06:42:01;;;;;;;4.28;1.60;;;20.50;71.00;;;;;;4945715;28;20035;-69
2022/08/02 06:44:37;;;;;;;6.60;1.70;;;20.70;70.30;;;;;;4938913;29;20037;-70
2022/08/02 06:47:03;;;;;;;5.85;1.52;;;20.70;69.60;;;;;;4942135;29;20047;-69
2022/08/02 06:49:29;;;;;;;4.38;1.70;;;20.80;68.80;;;;;;4942561;29;20054;-69
2022/08/02 06:51:55;;;;;;;5.13;1.50;;;20.90;67.50;;;;;;4940197;28;20488;-69
2022/08/02 06:54:21;;;;;;;4.35;1.45;;;20.90;67.90;;;;;;4938786;29;20035;-69
2022/08/02 06:56:47;;;;;;;6.15;1.92;;;21.00;67.20;;;;;;4938190;28;20118;-69
2022/08/02 06:59:13;;;;;;;5.13;1.50;;;21.00;66.30;;;;;;4940042;29;20500;-69
2022/08/02 07:01:39;;;;;;;5.65;1.30;;;21.10;66.30;;;;;;4945094;28;20046;-69
2022/08/02 07:04:05;;;;;;;6.57;1.13;;;21.20;64.50;;;;;;4942971;29;20078;-69
2022/08/02 07:06:30;;;;;;;3.92;1.42;;;21.20;64.50;;;;;;4940202;29;20033;-69
2022/08/02 07:08:56;;;;;;;3.08;1.23;;;21.30;63.70;;;;;;4941923;29;20052;-69
2022/08/02 07:11:22;;;;;;;4.30;1.45;;;21.40;63.40;;;;;;4940369;28;20024;-70
2022/08/02 07:13:48;;;;;;;4.97;1.33;;;21.40;63.60;;;;;;4939885;28;20039;-71
2022/08/02 07:16:14;;;;;;;5.65;1.30;;;21.50;62.70;;;;;;4942129;29;20031;-71
2022/08/02 07:18:40;;;;;;;6.10;1.40;;;21.60;61.50;;;;;;4942350;28;20049;-70
2022/08/02 07:21:06;;;;;;;5.80;1.60;;;21.70;61.50;;;;;;4943563;28;20059;-70
2022/08/02 07:23:32;;;;;;;5.97;1.63;;;21.80;61.20;;;;;;4943292;28;20084;-70
2022/08/02 07:25:59;;;;;;;6.47;1.38;;;21.90;60.70;;;;;;4941224;28;20042;-70
2022/08/02 07:28:24;;;;;;;3.97;1.30;;;21.90;61.20;;;;;;4940451;29;20105;-71
2022/08/02 07:30:51;;;;;;;4.22;1.00;;;22.00;61.80;;;;;;4944414;28;20106;-71
2022/08/02 07:33:17;;;;;;;4.47;1.48;;;22.00;61.70;;;;;;4936346;28;20050;-70
2022/08/02 07:35:42;;;;;;;11.23;1.70;;;22.00;60.80;;;;;;4936991;28;20027;-69
2022/08/02 07:38:08;;;;;;;5.40;1.45;;;22.10;61.30;;;;;;4942003;29;20167;-70
2022/08/02 07:40:34;;;;;;;4.80;1.10;;;22.20;60.90;;;;;;4944042;28;20039;-70
2022/08/02 07:43:00;;;;;;;2.85;1.08;;;22.20;60.50;;;;;;4942747;28;20042;-71
2022/08/02 07:45:26;;;;;;;4.82;1.40;;;22.30;60.20;;;;;;4940711;29;20035;-71
2022/08/02 07:47:52;;;;;;;5.65;1.40;;;22.30;59.70;;;;;;4939526;29;20038;-71
2022/08/02 07:50:19;;;;;;;7.10;1.30;;;22.30;59.90;;;;;;4937539;29;20098;-70
2022/08/02 07:52:46;;;;;;;5.18;1.60;;;22.40;60.30;;;;;;4936519;28;20504;-70
2022/08/02 07:55:13;;;;;;;4.35;1.10;;;22.40;60.50;;;;;;4934801;29;20102;-71
2022/08/02 07:57:40;;;;;;;5.97;1.10;;;22.50;60.20;;;;;;4944305;28;20066;-70
2022/08/02 08:00:10;;;;;;;5.03;1.48;;;22.50;59.90;;;;;;4942511;28;20058;-71
2022/08/02 08:02:39;;;;;;;5.38;1.52;;;22.60;60.40;;;;;;4941795;28;20066;-71
2022/08/02 08:05:06;;;;;;;5.10;1.25;;;22.70;58.80;;;;;;4938227;28;20143;-71
2022/08/02 08:07:32;;;;;;;7.82;1.33;;;22.60;59.40;;;;;;4939677;28;20034;-70
2022/08/02 08:09:58;;;;;;;6.43;1.17;;;22.70;59.10;;;;;;4936550;29;20027;-70
2022/08/02 08:12:24;;;;;;;3.60;1.27;;;22.70;58.20;;;;;;4936120;28;20517;-70
2022/08/02 08:14:50;;;;;;;4.63;1.15;;;22.80;58.40;;;;;;4936877;29;20050;-70
2022/08/02 08:17:16;;;;;;;8.68;1.75;;;22.90;58.40;;;;;;4943104;28;20063;-71
2022/08/02 08:19:42;;;;;;;5.68;1.45;;;23.00;58.40;;;;;;4943848;28;20042;-71
2022/08/02 08:22:07;;;;;;;2.85;1.00;;;23.10;57.50;;;;;;4939084;28;20055;-71
2022/08/02 08:24:33;;;;;;;4.70;1.10;;;23.20;57.60;;;;;;4940542;28;20074;-71
2022/08/02 08:26:59;;;;;;;4.28;1.10;;;23.20;57.30;;;;;;4938089;28;20038;-70
2022/08/02 08:29:25;;;;;;;7.45;2.20;;;23.40;58.30;;;;;;4938459;29;20157;-71
2022/08/02 08:31:51;;;;;;;3.47;1.25;;;23.40;56.50;;;;;;4936915;28;20023;-71
2022/08/02 08:34:17;;;;;;;7.90;1.48;;;23.50;57.50;;;;;;4941044;29;20050;-71
2022/08/02 08:36:43;;;;;;;5.50;1.65;;;23.60;56.80;;;;;;4944897;28;20035;-70
2022/08/02 08:39:09;;;;;;;5.68;1.40;;;23.60;56.10;;;;;;4941874;28;20050;-70
2022/08/02 08:41:36;;;;;;;6.53;1.55;;;23.60;55.90;;;;;;4939985;28;20046;-71
2022/08/02 08:44:02;;;;;;;7.65;1.17;;;23.50;56.00;;;;;;4937282;28;20126;-70
2022/08/02 08:46:31;;;;;;;5.90;1.30;;;23.50;56.50;;;;;;4937238;28;20503;-71
2022/08/02 08:49:15;;;;;;;6.20;1.20;;;23.60;56.40;;;;;;4935060;29;20035;-70
2022/08/02 08:51:42;;;;;;;5.45;1.88;;;23.70;55.60;;;;;;4937146;28;20039;-71
2022/08/02 08:54:15;;;;;;;3.15;1.05;;;23.70;56.60;;;;;;4941992;28;20043;-71
2022/08/02 08:56:42;;;;;;;3.25;1.10;;;23.70;56.90;;;;;;4941380;28;20031;-71
2022/08/02 08:59:09;;;;;;;4.72;1.08;;;23.70;56.50;;;;;;4953698;28;20034;-71
2022/08/02 09:01:35;;;;;;;4.88;1.52;;;23.80;55.00;;;;;;4940052;28;20024;-70
2022/08/02 09:04:01;;;;;;;4.32;1.30;;;23.90;54.80;;;;;;4937503;29;20039;-70
2022/08/02 09:06:26;;;;;;;6.35;1.10;;;23.90;54.90;;;;;;4938106;29;20039;-71
2022/08/02 09:08:52;;;;;;;4.15;1.65;;;24.00;55.00;;;;;;4935967;29;20392;-70
2022/08/02 09:11:23;;;;;;;8.90;1.20;;;24.10;55.20;;;;;;4939138;28;20856;-71
2022/08/02 09:13:52;;;;;;;7.53;1.10;;;24.10;54.80;;;;;;4943371;28;20038;-70
2022/08/02 09:16:39;;;;;;;4.80;1.42;;;24.30;55.40;;;;;;4940374;29;20051;-71
2022/08/02 09:19:21;;;;;;;5.95;1.15;;;24.40;54.20;;;;;;4938645;29;20042;-70
2022/08/02 09:22:00;;;;;;;3.88;1.33;;;24.40;54.40;;;;;;4937679;28;20023;-70
2022/08/02 09:24:26;;;;;;;3.70;1.23;;;24.60;54.50;;;;;;4937681;29;20039;-71
2022/08/02 09:26:52;;;;;;;2.45;0.98;;;24.60;53.90;;;;;;4935667;28;20724;-71
2022/08/02 09:29:22;;;;;;;2.80;1.20;;;24.60;54.10;;;;;;4934482;29;20111;-71
2022/08/02 09:31:49;;;;;;;2.90;1.10;;;24.70;54.50;;;;;;4945816;28;20027;-71
2022/08/02 09:34:15;;;;;;;3.30;1.08;;;24.80;53.90;;;;;;4940955;28;20038;-71
2022/08/02 09:36:43;;;;;;;2.60;1.15;;;24.90;53.70;;;;;;4941991;28;20105;-71
2022/08/02 09:39:11;;;;;;;3.85;1.48;;;25.00;53.20;;;;;;4937516;28;20036;-70
2022/08/02 09:41:42;;;;;;;6.60;1.40;;;25.10;52.70;;;;;;4938185;28;20032;-71
2022/08/02 09:44:09;;;;;;;7.03;1.15;;;25.20;53.00;;;;;;4934571;28;20032;-70
2022/08/02 09:46:41;;;;;;;4.22;0.90;;;25.20;52.80;;;;;;4936465;28;20027;-70
2022/08/02 09:49:11;;;;;;;3.13;1.20;;;25.30;52.60;;;;;;4932274;28;20134;-71
2022/08/02 09:51:50;;;;;;;1.83;1.05;;;25.40;52.50;;;;;;4941947;28;20039;-70
2022/08/02 09:54:22;;;;;;;3.80;1.13;;;25.40;51.80;;;;;;4940375;28;20090;-70
2022/08/02 09:56:53;;;;;;;4.55;1.30;;;25.50;51.60;;;;;;4940301;28;20039;-71
2022/08/02 09:59:23;;;;;;;2.83;0.98;;;25.60;52.30;;;;;;4935604;29;20172;-71
2022/08/02 10:01:49;;;;;;;4.95;1.42;;;25.70;51.50;;;;;;4937090;28;20792;-70
2022/08/02 10:04:22;;;;;;;2.13;0.93;;;25.70;51.40;;;;;;4934703;29;20737;-71
2022/08/02 10:06:49;;;;;;;5.13;1.33;;;25.80;51.00;;;;;;4934537;28;20077;-71
2022/08/02 10:09:15;;;;;;;3.92;1.02;;;25.90;51.30;;;;;;4940575;29;20400;-70
2022/08/02 10:11:41;;;;;;;5.82;1.05;;;26.00;50.30;;;;;;4940103;28;20031;-70
2022/08/02 10:14:09;;;;;;;7.25;1.10;;;26.00;51.00;;;;;;4939423;28;20039;-70
2022/08/02 10:16:42;;;;;;;5.95;1.05;;;26.10;50.70;;;;;;4939804;28;20047;-71
2022/08/02 10:19:09;;;;;;;4.28;1.00;;;26.20;51.10;;;;;;4936394;28;20036;-71
2022/08/02 10:22:10;;;;;;;5.30;1.38;;;26.30;50.80;;;;;;4937263;28;20051;-71
2022/08/02 10:24:38;;;;;;;2.78;1.00;;;26.50;50.30;;;;;;4928099;28;20035;-71
2022/08/02 10:27:06;;;;;;;2.95;0.98;;;26.50;49.60;;;;;;4935911;29;20027;-71
2022/08/02 10:29:36;;;;;;;2.65;1.20;;;26.50;49.70;;;;;;4941774;29;20063;-71
2022/08/02 10:32:09;;;;;;;4.93;1.30;;;26.50;50.00;;;;;;4942171;28;20058;-71
2022/08/02 10:34:44;;;;;;;4.55;1.48;;;26.50;50.20;;;;;;4935948;29;20392;-71
2022/08/02 10:37:12;;;;;;;4.03;1.38;;;26.40;50.40;;;;;;4936634;28;20676;-71
2022/08/02 10:39:42;;;;;;;2.50;1.10;;;26.30;49.80;;;;;;4938255;28;20118;-71
2022/08/02 10:42:08;;;;;;;2.67;1.10;;;26.20;50.40;;;;;;4933677;28;20122;-71
2022/08/02 10:44:35;;;;;;;3.55;1.10;;;26.30;49.30;;;;;;4932570;29;20164;-71
2022/08/02 10:47:13;;;;;;;3.92;1.50;;;26.40;49.80;;;;;;4940370;29;20046;-71
2022/08/02 10:49:49;;;;;;;4.18;1.40;;;26.50;49.40;;;;;;4938245;29;20082;-71
2022/08/02 10:52:16;;;;;;;3.30;1.23;;;26.50;49.70;;;;;;4940412;28;20134;-71
2022/08/02 10:54:46;;;;;;;4.78;1.35;;;26.50;49.80;;;;;;4942540;28;20042;-71
2022/08/02 10:57:25;;;;;;;3.92;1.13;;;26.50;49.60;;;;;;4936576;28;20036;-71
2022/08/02 11:00:00;;;;;;;4.82;1.80;;;26.50;50.10;;;;;;4937145;29;20826;-70
2022/08/02 11:02:34;;;;;;;2.05;0.95;;;26.50;49.50;;;;;;4935240;28;20058;-71
2022/08/02 11:05:02;;;;;;;3.08;1.00;;;26.40;49.10;;;;;;4938675;28;20067;-71
2022/08/02 11:07:58;;;;;;;5.85;1.20;;;26.40;48.90;;;;;;4940815;29;20034;-70
2022/08/02 11:10:38;;;;;;;6.25;1.50;;;26.50;49.40;;;;;;4933475;29;20060;-70
2022/08/02 11:13:14;;;;;;;4.72;1.55;;;26.60;49.80;;;;;;4940679;28;20482;-70
2022/08/02 11:15:59;;;;;;;3.67;1.30;;;26.70;48.80;;;;;;4943919;29;20035;-71
2022/08/02 11:18:50;;;;;;;4.07;1.20;;;26.70;49.80;;;;;;4939036;29;20039;-71
2022/08/02 11:21:24;;;;;;;5.72;1.38;;;26.70;48.00;;;;;;4936421;28;20091;-70
2022/08/02 11:23:51;;;;;;;4.22;1.40;;;26.70;48.70;;;;;;4941728;28;20122;-71
2022/08/02 11:26:32;;;;;;;3.92;1.25;;;26.60;49.10;;;;;;4943391;28;20082;-71
2022/08/02 11:29:01;;;;;;;5.85;2.05;;;26.70;48.20;;;;;;4941990;29;20027;-71
2022/08/02 11:31:28;;;;;;;4.63;1.40;;;26.60;47.90;;;;;;4943448;28;20023;-71
2022/08/02 11:33:54;;;;;;;4.78;1.20;;;26.60;47.80;;;;;;4942361;29;20039;-70
2022/08/02 11:36:21;;;;;;;7.30;1.27;;;26.60;48.20;;;;;;4938559;29;20159;-71
2022/08/02 11:38:47;;;;;;;6.35;1.27;;;26.60;48.80;;;;;;4938523;29;20102;-71
2022/08/02 11:41:20;;;;;;;3.83;1.20;;;26.70;49.00;;;;;;4935519;28;20759;-71
2022/08/02 11:43:46;;;;;;;4.88;1.13;;;26.70;48.20;;;;;;4944915;28;20053;-71
2022/08/02 11:46:14;;;;;;;2.83;0.90;;;26.80;48.90;;;;;;4942138;28;20759;-71
2022/08/02 11:48:41;;;;;;;3.10;1.20;;;27.00;48.50;;;;;;4942643;28;20042;-71
2022/08/02 11:51:17;;;;;;;3.50;1.30;;;27.10;48.00;;;;;;4939627;29;20107;-71
2022/08/02 11:53:56;;;;;;;2.10;1.33;;;27.20;48.00;;;;;;4939830;28;20490;-71
2022/08/02 11:56:33;;;;;;;1.95;1.00;;;27.20;46.90;;;;;;4938065;29;20099;-71
2022/08/02 11:59:09;;;;;;;3.95;1.48;;;27.30;46.90;;;;;;4935093;29;20792;-71
2022/08/02 12:01:37;;;;;;;2.40;1.00;;;27.30;47.50;;;;;;4940841;28;20388;-71
2022/08/02 12:04:04;;;;;;;3.83;1.23;;;27.30;46.20;;;;;;4945668;28;20039;-71
2022/08/02 12:06:31;;;;;;;6.78;1.70;;;27.30;46.80;;;;;;4947926;28;20041;-71
2022/08/02 12:09:09;;;;;;;4.90;1.40;;;27.30;46.00;;;;;;4946305;28;20648;-71
2022/08/02 12:11:35;;;;;;;3.67;1.20;;;27.20;46.40;;;;;;4944508;28;20113;-71
2022/08/02 12:14:02;;;;;;;5.00;1.30;;;27.20;45.60;;;;;;4941410;28;20047;-70
2022/08/02 12:19:25;;;;;;;2.72;1.20;;;27.00;46.60;;;;;;4941071;28;20111;-70
2022/08/02 12:22:23;;;;;;;2.83;1.00;;;27.10;46.70;;;;;;4948511;28;20038;-70
2022/08/02 12:24:50;;;;;;;2.67;1.10;;;27.20;46.10;;;;;;4944353;28;20047;-71
2022/08/02 12:27:37;;;;;;;2.53;1.23;;;27.20;45.90;;;;;;4944015;28;20035;-71
2022/08/02 12:30:08;;;;;;;2.45;1.20;;;27.30;46.00;;;;;;4943121;28;20435;-70
2022/08/02 12:32:35;;;;;;;4.88;1.48;;;27.30;45.60;;;;;;4954060;28;20684;-71
2022/08/02 12:35:11;;;;;;;5.25;1.20;;;27.30;45.50;;;;;;4935222;28;20031;-70
2022/08/02 12:37:41;;;;;;;5.55;1.20;;;27.30;45.40;;;;;;4936934;29;20035;-70
2022/08/02 12:40:30;;;;;;;2.90;1.10;;;27.40;45.60;;;;;;4940271;29;20042;-70
2022/08/02 12:42:58;;;;;;;1.92;1.20;;;27.40;45.50;;;;;;4939277;28;20129;-71
2022/08/02 12:45:27;;;;;;;5.22;1.20;;;27.50;45.50;;;;;;4940686;29;20272;-70
2022/08/02 12:47:55;;;;;;;5.43;1.27;;;27.50;45.40;;;;;;4940133;29;20031;-71
2022/08/02 12:50:28;;;;;;;2.67;1.30;;;27.60;45.40;;;;;;4938427;29;20032;-71
2022/08/02 12:53:09;;;;;;;4.93;1.40;;;27.70;45.20;;;;;;4934308;28;20035;-71
2022/08/02 12:55:40;;;;;;;3.45;0.98;;;27.70;44.80;;;;;;4936960;29;20058;-71
2022/08/02 12:58:05;;;;;;;4.18;1.35;;;27.70;44.80;;;;;;4937023;29;20043;-70
2022/08/02 13:00:36;;;;;;;6.30;1.38;;;27.80;45.10;;;;;;4943137;28;20534;-70
2022/08/02 13:03:04;;;;;;;4.75;1.40;;;27.80;45.00;;;;;;4942371;28;20091;-71
2022/08/02 13:05:30;;;;;;;2.33;1.30;;;27.80;44.90;;;;;;4942630;29;20035;-70
2022/08/02 13:07:58;;;;;;;2.10;0.93;;;27.80;44.70;;;;;;4940761;29;20110;-70